Time;durP1;ratioP1;P1;durP2;ratioP2;P2;SDS_P1;SDS_P2;PMS_P1;PMS_P2;Temp;Humidity;BMP_temperature;BMP_pressure;BME280_temperature;BME280_humidity;BME280_pressure;Samples;Min_cycle;Max_cycle;Signal;HPM_P1;HPM_P2
2023/07/31 00:00:30;;;;;;;2.80;1.90;;;;;;;25.57;47.62;97637.03;5113539;28;20545;-56
2023/07/31 00:02:55;;;;;;;4.10;1.90;;;;;;;25.39;47.77;97621.09;5113230;28;20270;-57
2023/07/31 00:05:21;;;;;;;1.30;1.20;;;;;;;25.37;47.73;97622.34;5113277;28;20175;-57
2023/07/31 00:07:47;;;;;;;1.33;1.23;;;;;;;25.47;47.64;97631.41;5113295;28;20703;-56
2023/07/31 00:10:12;;;;;;;1.63;1.10;;;;;;;25.41;47.28;97615.56;5113072;28;20175;-57
2023/07/31 00:12:41;;;;;;;1.88;1.10;;;;;;;25.32;48.11;97622.19;5112911;28;20198;-57
2023/07/31 00:15:07;;;;;;;6.57;1.95;;;;;;;24.94;49.76;97624.88;5112960;28;20627;-57
2023/07/31 00:17:33;;;;;;;2.33;1.30;;;;;;;24.78;49.60;97614.78;5112910;28;20189;-57
2023/07/31 00:19:58;;;;;;;1.25;1.15;;;;;;;24.74;50.64;97648.00;5112806;28;20179;-57
2023/07/31 00:22:24;;;;;;;1.25;1.15;;;;;;;24.64;49.87;97612.44;5112558;27;20175;-57
2023/07/31 00:24:49;;;;;;;3.75;1.60;;;;;;;24.80;49.86;97633.94;5112782;28;20178;-56
2023/07/31 00:27:14;;;;;;;7.75;1.70;;;;;;;24.82;49.56;97618.63;5112697;28;20525;-57
2023/07/31 00:29:40;;;;;;;2.83;1.42;;;;;;;25.01;49.34;97638.06;5112451;28;20189;-56
2023/07/31 00:32:06;;;;;;;4.63;1.67;;;;;;;24.95;49.17;97623.84;5112588;28;20260;-56
2023/07/31 00:34:31;;;;;;;1.77;1.50;;;;;;;25.05;49.10;97640.06;5112860;28;20236;-57
2023/07/31 00:36:57;;;;;;;2.78;1.52;;;;;;;25.00;49.88;97657.59;5112598;28;20175;-56
2023/07/31 00:39:22;;;;;;;2.20;1.60;;;;;;;24.53;50.86;97645.63;5112516;27;20175;-57
2023/07/31 00:41:47;;;;;;;4.25;1.90;;;;;;;24.73;50.53;97670.19;5112416;28;20202;-57
2023/07/31 00:44:13;;;;;;;4.03;1.70;;;;;;;24.41;51.33;97649.97;5112412;28;20254;-57
2023/07/31 00:46:38;;;;;;;3.45;1.77;;;;;;;24.51;51.83;97682.09;5112636;27;20544;-57
2023/07/31 00:49:05;;;;;;;4.13;1.98;;;;;;;24.31;51.92;97656.72;5112366;27;20194;-57
2023/07/31 00:51:30;;;;;;;3.17;1.90;;;;;;;24.36;51.52;97636.56;5112231;28;20219;-57
2023/07/31 00:53:56;;;;;;;3.47;1.85;;;;;;;24.55;51.60;97670.03;5112187;28;20221;-57
2023/07/31 00:56:23;;;;;;;4.40;2.00;;;;;;;24.44;52.05;97660.13;5111883;28;20195;-57
2023/07/31 00:58:49;;;;;;;2.30;1.85;;;;;;;24.44;51.97;97654.81;5111164;28;20629;-57
2023/07/31 01:01:15;;;;;;;4.55;1.95;;;;;;;24.16;52.95;97645.59;5112133;28;20202;-57
2023/07/31 01:03:40;;;;;;;5.00;2.10;;;;;;;24.01;53.27;97647.66;5112003;28;20267;-57
2023/07/31 01:06:40;;;;;;;4.32;1.90;;;;;;;23.91;54.34;97678.19;5111875;28;20195;-57
2023/07/31 01:09:14;;;;;;;3.00;1.63;;;;;;;23.77;54.68;97663.34;5105770;28;20187;-57
2023/07/31 01:11:51;;;;;;;2.95;2.00;;;;;;;23.92;54.42;97687.72;5109266;28;20211;-55
2023/07/31 01:14:17;;;;;;;2.50;1.60;;;;;;;24.04;53.51;97663.91;5109392;28;20191;-57
2023/07/31 01:16:42;;;;;;;6.05;2.00;;;;;;;24.13;52.92;97651.28;5109338;28;20738;-56
2023/07/31 01:19:10;;;;;;;2.95;2.10;;;;;;;24.48;52.77;97682.50;5109178;28;20183;-56
2023/07/31 01:21:36;;;;;;;2.53;1.83;;;;;;;24.48;53.10;97693.06;5109208;28;20182;-56
2023/07/31 01:24:22;;;;;;;4.43;1.80;;;;;;;24.26;53.30;97669.75;5109148;28;20265;-55
2023/07/31 01:27:04;;;;;;;2.90;1.60;;;;;;;24.37;53.52;97683.13;5109301;28;20190;-56
2023/07/31 01:29:55;;;;;;;2.53;1.60;;;;;;;24.26;54.04;97678.50;5109173;28;20183;-56
2023/07/31 01:32:22;;;;;;;2.65;1.77;;;;;;;23.96;55.22;97678.38;5109046;28;20229;-57
2023/07/31 01:34:48;;;;;;;4.47;1.70;;;;;;;24.01;55.11;97675.94;5109034;28;20660;-58
2023/07/31 01:37:14;;;;;;;2.42;1.90;;;;;;;23.77;55.48;97655.41;5109083;28;20182;-57
2023/07/31 01:39:39;;;;;;;3.83;1.50;;;;;;;23.66;55.67;97642.84;5109334;28;20195;-56
2023/07/31 01:42:05;;;;;;;2.15;1.98;;;;;;;23.75;55.08;97637.91;5111480;28;20663;-56
2023/07/31 01:44:30;;;;;;;4.97;1.92;;;;;;;24.25;54.21;97676.88;5111350;28;20166;-56
2023/07/31 01:46:56;;;;;;;7.20;2.20;;;;;;;24.17;53.46;97645.38;5111673;27;20167;-56
2023/07/31 01:49:21;;;;;;;2.45;2.22;;;;;;;24.47;52.74;97667.66;5111072;28;20172;-56
2023/07/31 01:51:47;;;;;;;1.77;1.65;;;;;;;24.27;54.03;97642.28;5111271;28;20289;-56
2023/07/31 01:54:12;;;;;;;2.13;1.90;;;;;;;24.04;55.22;97652.53;5111338;28;20200;-56
2023/07/31 01:56:37;;;;;;;2.88;2.00;;;;;;;23.85;55.98;97667.38;5111259;28;20174;-56
2023/07/31 01:59:03;;;;;;;1.80;1.70;;;;;;;23.36;56.91;97639.00;5111174;28;20243;-56
2023/07/31 02:01:28;;;;;;;5.97;2.00;;;;;;;23.56;56.87;97658.28;5111258;28;20270;-56
2023/07/31 02:03:54;;;;;;;3.60;2.17;;;;;;;23.47;56.33;97638.34;5111281;28;20629;-56
2023/07/31 02:06:19;;;;;;;5.13;2.10;;;;;;;23.66;55.79;97642.84;5108363;28;20190;-56
2023/07/31 02:08:45;;;;;;;3.83;2.35;;;;;;;23.61;56.72;97661.13;5108607;28;20194;-55
2023/07/31 02:11:10;;;;;;;3.33;2.22;;;;;;;23.62;56.23;97660.09;5111470;28;20218;-56
2023/07/31 02:13:35;;;;;;;6.95;3.13;;;;;;;23.65;56.17;97668.44;5112795;28;20205;-55
2023/07/31 02:16:01;;;;;;;5.55;1.80;;;;;;;23.56;54.91;97632.69;5112786;28;20660;-56
2023/07/31 02:18:26;;;;;;;4.03;2.30;;;;;;;23.52;56.05;97642.03;5112657;28;20187;-56
2023/07/31 02:20:52;;;;;;;2.53;1.70;;;;;;;23.64;55.52;97658.88;5112708;28;20175;-56
2023/07/31 02:23:18;;;;;;;2.85;2.22;;;;;;;23.72;54.64;97640.16;5112565;28;20192;-56
2023/07/31 02:25:44;;;;;;;6.97;2.25;;;;;;;23.78;54.46;97637.53;5112640;28;20217;-56
2023/07/31 02:28:09;;;;;;;3.58;2.05;;;;;;;23.93;54.82;97671.69;5112499;28;20273;-56
2023/07/31 02:30:35;;;;;;;2.80;1.98;;;;;;;23.80;55.30;97650.53;5112488;28;20629;-56
2023/07/31 02:33:00;;;;;;;2.83;2.05;;;;;;;23.60;56.85;97665.59;5112386;28;20289;-56
2023/07/31 02:35:26;;;;;;;2.38;2.17;;;;;;;23.37;56.93;97633.50;5112541;28;20175;-56
2023/07/31 02:37:51;;;;;;;3.30;1.77;;;;;;;23.58;56.76;97672.91;5112398;28;20340;-56
2023/07/31 02:40:16;;;;;;;3.00;1.98;;;;;;;23.38;56.95;97627.22;5112362;28;20187;-56
2023/07/31 02:42:42;;;;;;;6.03;2.53;;;;;;;23.49;57.13;97670.69;5112392;28;20182;-56
2023/07/31 02:45:08;;;;;;;2.88;1.80;;;;;;;23.61;56.20;97651.34;5114708;28;20175;-56
2023/07/31 02:47:33;;;;;;;2.70;2.10;;;;;;;23.48;56.51;97629.44;5114669;28;20530;-56
2023/07/31 02:49:59;;;;;;;3.08;1.90;;;;;;;23.37;57.86;97637.97;5114643;28;20175;-56
2023/07/31 02:52:25;;;;;;;2.03;1.83;;;;;;;23.59;56.88;97652.59;5114535;28;20251;-56
2023/07/31 02:54:50;;;;;;;3.88;2.10;;;;;;;23.47;57.17;97631.25;5114526;27;20258;-56
2023/07/31 02:57:16;;;;;;;2.55;2.35;;;;;;;23.45;57.15;97619.28;5111727;28;20705;-56
2023/07/31 02:59:41;;;;;;;4.22;2.17;;;;;;;23.81;56.62;97645.03;5111921;28;20179;-56
2023/07/31 03:02:07;;;;;;;2.30;2.10;;;;;;;23.54;56.68;97612.78;5111882;28;20194;-56
2023/07/31 03:04:32;;;;;;;4.18;2.05;;;;;;;23.51;57.17;97607.91;5111903;28;20183;-56
2023/07/31 03:06:57;;;;;;;3.33;1.85;;;;;;;23.58;57.26;97638.56;5111549;28;20309;-56
2023/07/31 03:09:23;;;;;;;1.90;1.80;;;;;;;23.62;57.47;97636.31;5111757;28;20186;-56
2023/07/31 03:11:48;;;;;;;4.32;2.15;;;;;;;23.69;57.16;97636.09;5111817;28;20302;-56
2023/07/31 03:14:14;;;;;;;3.17;2.20;;;;;;;23.61;56.99;97629.44;5111912;28;20182;-57
2023/07/31 03:16:39;;;;;;;3.85;2.00;;;;;;;23.46;58.38;97642.84;5111891;28;20303;-57
2023/07/31 03:19:04;;;;;;;2.35;2.15;;;;;;;23.52;58.06;97642.03;5111549;28;20175;-57
2023/07/31 03:21:30;;;;;;;3.08;2.28;;;;;;;23.49;57.89;97620.50;5110909;28;20179;-56
2023/07/31 03:23:55;;;;;;;5.25;2.45;;;;;;;23.52;57.84;97598.94;5111370;28;20256;-57
2023/07/31 03:26:21;;;;;;;3.25;2.20;;;;;;;23.60;57.85;97612.75;5111422;28;20691;-57
2023/07/31 03:28:46;;;;;;;2.63;2.33;;;;;;;23.71;57.81;97619.25;5070593;28;20188;-56
2023/07/31 03:31:11;;;;;;;3.40;2.25;;;;;;;23.60;57.95;97596.09;5070590;28;20213;-57
2023/07/31 03:33:37;;;;;;;4.63;2.50;;;;;;;23.84;57.70;97634.06;5070660;28;20192;-56
2023/07/31 03:36:03;;;;;;;3.95;2.30;;;;;;;23.81;57.43;97621.25;5070711;28;20180;-57
2023/07/31 03:38:28;;;;;;;3.13;2.70;;;;;;;23.88;57.58;97628.41;5070731;28;20203;-57
2023/07/31 03:40:53;;;;;;;3.15;2.28;;;;;;;24.02;56.82;97622.88;5070563;28;20195;-57
2023/07/31 03:43:19;;;;;;;3.47;2.15;;;;;;;24.17;56.67;97652.50;5070508;28;20208;-56
2023/07/31 03:45:45;;;;;;;3.00;2.60;;;;;;;23.55;57.79;97606.47;5070399;28;20184;-56
2023/07/31 03:48:10;;;;;;;4.28;2.35;;;;;;;23.74;57.88;97632.88;5070326;28;20176;-57
2023/07/31 03:50:35;;;;;;;3.28;2.60;;;;;;;23.78;57.60;97636.69;5070643;28;20245;-56
2023/07/31 03:53:01;;;;;;;2.17;2.03;;;;;;;24.00;57.43;97658.47;5070140;28;20299;-56
2023/07/31 03:55:26;;;;;;;2.50;2.30;;;;;;;24.00;57.34;97650.53;5070320;28;20225;-57
2023/07/31 03:57:51;;;;;;;5.47;2.80;;;;;;;24.23;57.12;97665.72;5070348;28;20268;-56
2023/07/31 04:00:17;;;;;;;4.30;2.25;;;;;;;24.39;57.86;97694.31;5070447;28;20253;-57
2023/07/31 04:02:42;;;;;;;4.55;2.85;;;;;;;24.54;58.39;97697.53;5070174;28;20176;-56
2023/07/31 04:05:08;;;;;;;5.93;3.10;;;;;;;24.56;60.35;97684.88;5073017;28;20679;-57
2023/07/31 04:07:33;;;;;;;4.40;3.40;;;;;;;24.48;61.79;97665.78;5113320;27;20202;-57
2023/07/31 04:10:00;;;;;;;4.07;2.90;;;;;;;24.57;63.81;97696.31;5113669;28;20171;-57
2023/07/31 04:12:25;;;;;;;6.10;3.35;;;;;;;24.14;67.15;97689.94;5112943;28;20238;-57
2023/07/31 04:14:50;;;;;;;7.78;3.17;;;;;;;23.65;72.17;97688.75;5113000;28;20201;-56
2023/07/31 04:17:17;;;;;;;5.80;3.67;;;;;;;23.56;73.97;97705.81;5112732;27;20627;-56
2023/07/31 04:19:43;;;;;;;4.32;3.58;;;;;;;23.50;74.00;97669.66;5112934;28;20657;-56
2023/07/31 04:22:08;;;;;;;4.90;3.88;;;;;;;23.61;76.13;97674.31;5112875;28;20186;-57
2023/07/31 04:24:33;;;;;;;4.00;3.35;;;;;;;23.44;79.12;97691.59;5112789;28;20308;-56
2023/07/31 04:26:59;;;;;;;7.63;3.67;;;;;;;23.28;79.90;97692.00;5112722;28;20254;-56
2023/07/31 04:29:24;;;;;;;5.45;3.60;;;;;;;23.41;79.91;97698.09;5112705;28;20178;-56
2023/07/31 04:31:50;;;;;;;4.88;3.75;;;;;;;23.55;81.14;97710.28;5112596;28;20214;-56
2023/07/31 04:34:15;;;;;;;4.75;3.72;;;;;;;23.30;86.25;97689.97;5111937;28;20654;-56
2023/07/31 04:36:40;;;;;;;4.35;3.90;;;;;;;23.14;88.47;97685.03;5109920;28;20190;-56
2023/07/31 04:39:06;;;;;;;6.93;3.90;;;;;;;23.19;86.04;97687.94;5109969;28;20186;-56
2023/07/31 04:41:31;;;;;;;3.83;3.45;;;;;;;22.93;89.96;97696.56;5109913;28;20210;-56
2023/07/31 04:43:56;;;;;;;4.80;3.60;;;;;;;23.05;86.35;97702.06;5109856;28;20626;-56
2023/07/31 04:46:22;;;;;;;5.15;3.55;;;;;;;22.98;87.29;97694.16;5109781;28;20214;-56
2023/07/31 04:48:47;;;;;;;4.35;3.70;;;;;;;22.93;87.24;97682.56;5109794;28;20184;-56
2023/07/31 04:51:13;;;;;;;7.90;4.18;;;;;;;22.89;89.29;97689.28;5109737;28;20310;-56
2023/07/31 04:53:38;;;;;;;6.40;3.90;;;;;;;23.11;88.47;97711.81;5109800;28;20171;-56
2023/07/31 04:56:04;;;;;;;4.47;3.08;;;;;;;23.18;86.65;97708.22;5109686;28;20263;-56
2023/07/31 04:58:29;;;;;;;4.47;3.20;;;;;;;23.41;80.70;97705.19;5109640;28;20568;-56
2023/07/31 05:00:55;;;;;;;2.97;2.60;;;;;;;23.62;77.30;97705.84;5109546;28;20194;-56
2023/07/31 05:03:20;;;;;;;3.00;2.78;;;;;;;23.88;76.52;97732.25;5109573;28;20183;-56
2023/07/31 05:05:46;;;;;;;3.67;3.00;;;;;;;24.01;76.42;97726.94;5109358;28;20278;-56
2023/07/31 05:08:11;;;;;;;3.15;2.95;;;;;;;24.06;76.11;97713.13;5111047;28;20611;-56
2023/07/31 05:10:37;;;;;;;3.15;2.85;;;;;;;24.20;75.86;97716.34;5111839;28;20612;-56
2023/07/31 05:13:02;;;;;;;5.38;2.97;;;;;;;24.35;76.13;97726.69;5111826;28;20206;-56
2023/07/31 05:15:28;;;;;;;3.70;3.35;;;;;;;24.51;74.99;97734.16;5111860;28;20175;-56
2023/07/31 05:17:54;;;;;;;4.80;3.30;;;;;;;24.42;74.63;97725.66;5111497;28;20643;-56
2023/07/31 05:20:19;;;;;;;3.30;3.00;;;;;;;24.59;73.46;97726.84;5111718;28;20175;-56
2023/07/31 05:22:45;;;;;;;4.13;3.72;;;;;;;24.58;73.51;97714.63;5108989;28;20615;-56
2023/07/31 05:25:10;;;;;;;3.50;3.30;;;;;;;24.63;72.39;97711.34;5109146;28;20202;-56
2023/07/31 05:27:35;;;;;;;5.03;3.10;;;;;;;24.64;72.91;97705.03;5109350;28;20672;-56
2023/07/31 05:30:01;;;;;;;4.70;3.13;;;;;;;24.82;73.08;97724.50;5109085;28;20179;-56
2023/07/31 05:32:27;;;;;;;3.53;3.22;;;;;;;24.64;73.41;97712.97;5108908;28;20222;-56
2023/07/31 05:34:53;;;;;;;3.28;2.97;;;;;;;24.27;73.19;97711.84;5109398;28;20179;-56
2023/07/31 05:37:19;;;;;;;4.13;3.13;;;;;;;24.14;74.29;97730.38;5109033;28;20185;-56
2023/07/31 05:39:44;;;;;;;3.40;3.17;;;;;;;24.08;74.03;97704.78;5108911;28;20183;-56
2023/07/31 05:42:10;;;;;;;7.32;3.40;;;;;;;24.02;73.99;97715.38;5108821;28;20209;-56
2023/07/31 05:44:35;;;;;;;3.38;3.03;;;;;;;24.06;73.62;97734.28;5108529;28;20171;-56
2023/07/31 05:47:00;;;;;;;5.32;3.38;;;;;;;24.04;74.46;97742.41;5108851;28;20673;-56
2023/07/31 05:49:26;;;;;;;5.78;3.85;;;;;;;24.11;74.05;97735.28;5108786;28;20657;-56
2023/07/31 05:51:51;;;;;;;4.20;3.53;;;;;;;24.04;73.41;97721.25;5108661;28;20199;-56
2023/07/31 05:54:17;;;;;;;3.67;3.40;;;;;;;24.21;72.83;97741.75;5110237;28;20237;-56
2023/07/31 05:56:42;;;;;;;3.70;3.45;;;;;;;24.41;71.81;97755.75;5111163;28;20198;-56
2023/07/31 05:59:09;;;;;;;4.32;3.40;;;;;;;24.40;71.77;97734.81;5111238;28;20632;-56
2023/07/31 06:01:35;;;;;;;3.95;3.20;;;;;;;24.41;71.64;97741.72;5110937;28;20710;-56
2023/07/31 06:04:01;;;;;;;4.30;3.22;;;;;;;24.65;70.59;97757.75;5110863;28;20176;-56
2023/07/31 06:06:27;;;;;;;4.95;3.03;;;;;;;24.60;70.15;97733.75;5108410;28;20202;-56
2023/07/31 06:08:52;;;;;;;3.83;3.50;;;;;;;24.75;70.31;97749.38;5108696;28;20682;-56
2023/07/31 06:11:18;;;;;;;7.10;3.67;;;;;;;24.70;69.64;97747.34;5108576;28;20210;-56
2023/07/31 06:13:44;;;;;;;3.42;3.20;;;;;;;24.84;68.95;97745.47;5108568;28;20206;-56
2023/07/31 06:16:09;;;;;;;7.00;4.07;;;;;;;25.02;69.27;97745.59;5108503;28;20213;-56
2023/07/31 06:18:35;;;;;;;11.70;4.70;;;;;;;25.17;69.98;97741.63;5108414;28;20240;-56
2023/07/31 06:21:00;;;;;;;5.95;3.95;;;;;;;25.22;69.12;97749.75;5108547;28;20183;-56
2023/07/31 06:23:26;;;;;;;4.90;4.38;;;;;;;25.15;70.09;97727.81;5108423;28;20199;-57
2023/07/31 06:25:51;;;;;;;6.07;3.55;;;;;;;25.38;70.01;97748.47;5108523;28;20180;-56
2023/07/31 06:28:17;;;;;;;4.40;4.10;;;;;;;25.53;69.08;97739.19;5108451;28;20550;-57
2023/07/31 06:30:42;;;;;;;5.28;4.50;;;;;;;25.62;68.95;97727.28;5087799;28;20222;-57
2023/07/31 06:33:09;;;;;;;6.53;4.30;;;;;;;25.76;67.97;97735.94;5087821;28;20219;-57
2023/07/31 06:35:34;;;;;;;5.28;3.65;;;;;;;25.73;66.71;97736.38;5088018;28;20248;-56
2023/07/31 06:38:00;;;;;;;6.38;3.95;;;;;;;25.79;67.56;97754.06;5087865;28;20743;-57
2023/07/31 06:40:25;;;;;;;5.85;4.70;;;;;;;25.71;66.57;97744.53;5087897;28;20205;-56
2023/07/31 06:42:50;;;;;;;6.80;4.15;;;;;;;25.45;67.79;97720.91;5089528;28;20191;-57
2023/07/31 06:45:16;;;;;;;8.63;5.30;;;;;;;25.84;68.39;97747.06;5108192;28;20186;-56
2023/07/31 06:47:42;;;;;;;9.30;6.00;;;;;;;25.77;68.36;97717.16;5108242;28;20290;-57
2023/07/31 06:50:08;;;;;;;6.63;5.90;;;;;;;26.15;67.92;97747.03;5108178;28;20266;-55
2023/07/31 06:52:33;;;;;;;8.10;5.88;;;;;;;26.12;65.87;97726.25;5108138;28;20622;-55
2023/07/31 06:55:25;;;;;;;6.88;6.28;;;;;;;26.45;64.82;97757.75;5108015;28;20230;-55
2023/07/31 06:57:52;;;;;;;6.97;6.07;;;;;;;26.38;64.68;97720.69;5108447;28;20183;-56
2023/07/31 07:00:19;;;;;;;7.55;6.18;;;;;;;26.64;63.92;97748.81;5111948;28;20266;-56
2023/07/31 07:02:47;;;;;;;6.25;5.75;;;;;;;26.58;62.32;97726.59;5113843;28;20273;-56
2023/07/31 07:05:12;;;;;;;6.95;6.35;;;;;;;26.64;61.60;97720.41;5114151;28;20183;-55
2023/07/31 07:07:38;;;;;;;6.90;6.25;;;;;;;26.87;61.61;97752.38;5114325;28;20202;-55
2023/07/31 07:10:04;;;;;;;6.97;6.28;;;;;;;26.94;62.03;97752.31;5114191;28;20259;-56
2023/07/31 07:12:31;;;;;;;7.47;6.88;;;;;;;26.88;61.94;97730.09;5114093;28;20609;-56
2023/07/31 07:14:57;;;;;;;6.85;6.25;;;;;;;27.14;61.94;97753.66;5114159;28;20297;-56
2023/07/31 07:17:23;;;;;;;8.20;6.80;;;;;;;27.25;61.85;97752.13;5114031;28;20167;-56
2023/07/31 07:19:48;;;;;;;7.85;7.05;;;;;;;27.17;61.23;97720.56;5114105;28;20247;-56
2023/07/31 07:22:14;;;;;;;8.65;7.85;;;;;;;27.34;60.84;97725.00;5114074;28;20178;-56
2023/07/31 07:24:40;;;;;;;8.18;7.53;;;;;;;27.53;60.65;97750.47;5114190;28;20644;-56
2023/07/31 07:27:05;;;;;;;9.00;8.10;;;;;;;27.56;60.11;97744.69;5114152;28;20191;-56
2023/07/31 07:29:31;;;;;;;8.32;7.63;;;;;;;27.49;60.58;97719.25;5113926;28;20167;-56
2023/07/31 07:31:56;;;;;;;9.27;8.38;;;;;;;27.52;61.22;97716.94;5113937;28;20606;-56
2023/07/31 07:34:28;;;;;;;9.10;8.20;;;;;;;27.74;61.56;97752.59;5113844;28;20172;-56
2023/07/31 07:36:54;;;;;;;8.80;7.93;;;;;;;27.66;61.08;97726.34;5113857;28;20182;-57
2023/07/31 07:39:20;;;;;;;9.20;8.40;;;;;;;27.61;61.07;97710.28;5113700;28;20258;-56
2023/07/31 07:41:46;;;;;;;8.95;8.25;;;;;;;27.80;61.08;97741.06;5113678;28;20197;-56
2023/07/31 07:44:11;;;;;;;9.70;8.38;;;;;;;27.67;61.53;97712.00;5113625;28;20179;-56
2023/07/31 07:46:36;;;;;;;10.00;8.85;;;;;;;27.79;59.67;97723.50;5113324;28;20183;-56
2023/07/31 07:49:02;;;;;;;8.43;7.70;;;;;;;27.88;58.79;97718.66;5113568;28;20172;-57
2023/07/31 07:51:29;;;;;;;9.75;8.77;;;;;;;28.09;59.27;97747.31;5113282;28;20206;-56
2023/07/31 07:53:55;;;;;;;10.25;8.50;;;;;;;28.03;59.57;97732.28;5113344;28;20179;-56
2023/07/31 07:56:20;;;;;;;9.57;8.57;;;;;;;28.07;60.02;97712.16;5113302;28;20175;-56
2023/07/31 07:58:49;;;;;;;9.30;8.50;;;;;;;28.37;59.68;97745.63;5113393;28;20175;-56
2023/07/31 08:01:14;;;;;;;9.52;8.70;;;;;;;28.28;59.10;97709.72;5113150;28;20232;-57
2023/07/31 08:03:39;;;;;;;10.30;9.30;;;;;;;28.39;58.81;97732.88;5112995;28;20270;-56
2023/07/31 08:06:05;;;;;;;10.77;9.07;;;;;;;28.46;58.21;97730.91;5113121;28;20221;-57
2023/07/31 08:08:30;;;;;;;10.55;9.43;;;;;;;28.32;58.63;97726.84;5113088;28;20173;-57
2023/07/31 08:10:56;;;;;;;10.75;9.45;;;;;;;28.50;58.85;97731.25;5112973;28;20257;-56
2023/07/31 08:13:21;;;;;;;10.80;9.80;;;;;;;28.51;58.00;97736.31;5112739;28;20174;-56
2023/07/31 08:15:46;;;;;;;10.73;9.73;;;;;;;28.37;57.89;97711.03;5112784;28;20175;-56
2023/07/31 08:18:12;;;;;;;10.80;9.70;;;;;;;28.42;58.00;97703.16;5113251;28;20171;-56
2023/07/31 08:20:37;;;;;;;11.60;9.88;;;;;;;28.53;57.71;97736.94;5112892;28;20540;-56
2023/07/31 08:23:03;;;;;;;14.10;10.38;;;;;;;28.38;57.77;97706.50;5112849;28;20182;-56
2023/07/31 08:25:29;;;;;;;11.60;10.43;;;;;;;28.70;58.54;97729.00;5130714;27;20277;-56
2023/07/31 08:27:55;;;;;;;11.50;10.50;;;;;;;28.64;57.48;97722.78;5130797;27;20657;-56
2023/07/31 08:30:21;;;;;;;10.82;9.73;;;;;;;28.68;57.71;97712.47;5130736;27;20277;-57
2023/07/31 08:32:46;;;;;;;11.85;10.65;;;;;;;28.74;57.80;97709.66;5130601;27;20220;-56
2023/07/31 08:35:12;;;;;;;11.60;10.40;;;;;;;28.76;56.68;97718.22;5130828;27;20190;-57
2023/07/31 08:37:38;;;;;;;11.20;10.10;;;;;;;28.72;56.46;97711.75;5130743;27;20205;-57
2023/07/31 08:40:04;;;;;;;11.48;10.43;;;;;;;28.86;56.33;97737.06;5130830;27;20278;-56
2023/07/31 08:42:30;;;;;;;11.13;10.13;;;;;;;28.78;56.20;97713.47;5130441;27;20256;-56
2023/07/31 08:44:56;;;;;;;14.63;11.65;;;;;;;28.84;56.43;97715.19;5130492;27;20270;-56
2023/07/31 08:47:22;;;;;;;13.30;11.80;;;;;;;29.01;56.73;97729.41;5130477;27;20174;-56
2023/07/31 08:49:49;;;;;;;13.93;12.57;;;;;;;29.11;56.17;97726.13;5130441;27;20181;-56
2023/07/31 08:52:14;;;;;;;14.10;12.70;;;;;;;29.18;56.82;97743.59;5130117;27;20626;-56
2023/07/31 08:54:40;;;;;;;14.13;12.65;;;;;;;29.19;56.76;97736.38;5089121;28;20192;-56
2023/07/31 08:57:07;;;;;;;14.02;12.65;;;;;;;28.98;55.86;97711.22;5089305;28;20184;-56
2023/07/31 08:59:34;;;;;;;13.52;12.18;;;;;;;29.00;55.89;97718.97;5089309;28;20327;-56
2023/07/31 09:02:06;;;;;;;12.55;11.20;;;;;;;29.10;55.09;97722.63;5089230;28;20167;-56
2023/07/31 09:04:32;;;;;;;12.65;11.45;;;;;;;29.08;55.66;97729.25;5089214;28;20253;-56
2023/07/31 09:07:03;;;;;;;12.75;11.50;;;;;;;29.17;54.78;97719.81;5089028;28;20268;-56
2023/07/31 09:09:28;;;;;;;13.50;11.77;;;;;;;29.46;54.69;97756.06;5089035;28;20667;-56
2023/07/31 09:11:55;;;;;;;13.25;11.95;;;;;;;29.42;53.91;97723.75;5088772;28;20211;-56
2023/07/31 09:14:21;;;;;;;12.15;11.05;;;;;;;29.55;53.13;97733.34;5088898;28;20697;-56
2023/07/31 09:16:54;;;;;;;11.75;10.63;;;;;;;29.57;52.99;97742.69;5088968;28;20199;-56
2023/07/31 09:19:33;;;;;;;12.38;10.73;;;;;;;29.65;53.32;97731.66;5088621;28;20601;-57
2023/07/31 09:21:59;;;;;;;12.52;11.25;;;;;;;29.97;51.77;97754.03;5088899;28;20211;-56
2023/07/31 09:24:29;;;;;;;13.05;10.70;;;;;;;30.00;51.53;97748.22;5088782;28;20271;-55
2023/07/31 09:26:56;;;;;;;11.57;10.55;;;;;;;30.07;50.63;97743.50;5109211;28;20179;-56
2023/07/31 09:29:21;;;;;;;12.82;11.45;;;;;;;30.01;50.43;97747.16;5109113;28;20269;-56
2023/07/31 09:31:47;;;;;;;11.55;10.55;;;;;;;29.91;50.48;97744.31;5109042;28;20290;-56
2023/07/31 09:34:13;;;;;;;12.18;10.98;;;;;;;29.77;51.00;97732.38;5109097;28;20198;-56
2023/07/31 09:36:53;;;;;;;11.38;10.35;;;;;;;29.85;49.79;97733.84;5109051;28;20561;-56
2023/07/31 09:39:19;;;;;;;11.88;10.77;;;;;;;29.74;50.33;97708.03;5108936;28;20239;-56
2023/07/31 09:41:53;;;;;;;10.52;9.50;;;;;;;29.79;49.11;97697.47;5108865;28;20175;-56
2023/07/31 09:44:18;;;;;;;11.13;10.10;;;;;;;30.07;49.12;97734.72;5108951;28;20179;-56
2023/07/31 09:46:44;;;;;;;10.80;9.80;;;;;;;29.97;48.36;97695.31;5108801;28;20194;-56
2023/07/31 09:49:11;;;;;;;11.27;10.23;;;;;;;30.07;48.41;97676.78;5109745;28;20273;-58
2023/07/31 09:51:38;;;;;;;13.35;11.95;;;;;;;30.35;47.97;97708.72;5111612;28;20203;-55
2023/07/31 09:54:10;;;;;;;13.43;12.13;;;;;;;30.60;48.81;97722.38;5111784;28;20175;-55
2023/07/31 09:56:37;;;;;;;13.05;11.75;;;;;;;30.72;48.21;97716.97;5111525;28;20167;-55
2023/07/31 09:59:04;;;;;;;13.45;11.77;;;;;;;30.92;47.42;97718.00;5111586;28;20179;-55
2023/07/31 10:01:30;;;;;;;12.68;11.40;;;;;;;30.73;46.05;97692.66;5111653;28;20171;-55
2023/07/31 10:03:58;;;;;;;12.57;11.27;;;;;;;30.85;46.49;97706.69;5111312;28;20198;-56
2023/07/31 10:06:25;;;;;;;13.70;11.65;;;;;;;30.88;46.27;97710.72;5111371;28;20232;-55
2023/07/31 10:08:52;;;;;;;13.60;12.30;;;;;;;30.91;46.49;97719.06;5111456;28;20175;-56
2023/07/31 10:11:19;;;;;;;13.45;12.15;;;;;;;30.98;45.86;97719.69;5111471;28;20219;-56
2023/07/31 10:13:45;;;;;;;14.30;12.32;;;;;;;31.02;46.25;97710.09;5111507;28;20186;-56
2023/07/31 10:16:12;;;;;;;14.85;13.02;;;;;;;31.17;45.66;97701.41;5111469;28;20200;-56
2023/07/31 10:18:38;;;;;;;14.40;12.93;;;;;;;31.38;44.99;97714.78;5111431;28;20180;-57
2023/07/31 10:21:04;;;;;;;13.80;12.40;;;;;;;31.56;44.97;97703.69;5111813;28;20295;-56
2023/07/31 10:23:30;;;;;;;12.82;11.57;;;;;;;31.83;43.36;97714.38;5111839;28;20424;-56
2023/07/31 10:25:58;;;;;;;12.48;11.18;;;;;;;31.87;43.26;97708.25;5111187;28;20171;-56
2023/07/31 10:28:24;;;;;;;12.05;10.85;;;;;;;31.75;42.74;97704.94;5111587;28;20202;-56
2023/07/31 10:30:50;;;;;;;12.43;11.23;;;;;;;31.69;43.14;97705.13;5111435;28;20172;-57
2023/07/31 10:33:17;;;;;;;12.02;10.93;;;;;;;31.60;43.41;97686.06;5114296;28;20559;-56
2023/07/31 10:35:42;;;;;;;11.68;10.32;;;;;;;31.57;43.53;97686.59;5115328;28;20171;-56
2023/07/31 10:38:12;;;;;;;11.80;9.80;;;;;;;31.49;41.84;97684.34;5115635;28;20185;-57
2023/07/31 10:40:38;;;;;;;11.68;10.60;;;;;;;31.39;42.50;97673.59;5115208;28;20181;-56
2023/07/31 10:43:03;;;;;;;11.02;10.02;;;;;;;31.35;42.78;97683.19;5115222;28;20179;-56
2023/07/31 10:45:39;;;;;;;10.40;9.40;;;;;;;31.30;43.72;97688.47;5114867;28;20258;-56
2023/07/31 10:48:23;;;;;;;9.90;8.90;;;;;;;31.29;42.98;97684.19;5114835;28;20199;-57
2023/07/31 10:50:59;;;;;;;9.05;8.25;;;;;;;31.22;42.25;97662.22;5115073;28;20206;-57
2023/07/31 10:53:32;;;;;;;9.73;8.73;;;;;;;31.25;42.69;97644.84;5114817;28;20645;-57
2023/07/31 10:56:05;;;;;;;9.23;8.32;;;;;;;31.70;42.67;97654.03;5115040;28;20171;-57
2023/07/31 10:58:32;;;;;;;8.68;7.65;;;;;;;31.71;41.76;97666.34;5115031;28;20170;-57
2023/07/31 11:01:03;;;;;;;9.35;8.43;;;;;;;31.77;41.24;97677.94;5115248;28;20258;-57
2023/07/31 11:03:52;;;;;;;8.68;7.88;;;;;;;31.59;40.98;97651.56;5115012;28;20183;-56
2023/07/31 11:06:18;;;;;;;7.90;7.10;;;;;;;31.65;41.41;97666.59;5114792;28;20266;-56
2023/07/31 11:08:46;;;;;;;7.97;7.28;;;;;;;31.36;41.49;97642.00;5114530;28;20697;-56
2023/07/31 11:11:14;;;;;;;10.57;7.60;;;;;;;31.72;41.26;97653.81;5114534;28;20242;-56
2023/07/31 11:13:41;;;;;;;8.52;7.70;;;;;;;32.16;41.38;97664.00;5114637;28;20177;-56
2023/07/31 11:16:08;;;;;;;8.30;6.80;;;;;;;32.62;40.55;97663.16;5114264;28;20546;-56
2023/07/31 11:18:33;;;;;;;8.35;7.55;;;;;;;32.72;39.50;97647.13;5114565;28;20182;-55
2023/07/31 11:20:58;;;;;;;8.35;7.55;;;;;;;32.89;38.50;97654.97;5114625;28;20171;-56
2023/07/31 11:23:24;;;;;;;7.50;6.80;;;;;;;32.65;39.35;97630.47;5114623;28;20308;-56
2023/07/31 11:25:50;;;;;;;7.63;6.93;;;;;;;32.89;39.57;97647.75;5114660;28;20171;-56